createdAt,value
2022-10-06T00:02:23.536Z,99407.81
2022-10-06T00:04:50.197Z,99408.75
2022-10-06T00:07:17.122Z,99409.81
2022-10-06T00:09:43.863Z,99410.69
2022-10-06T00:12:11.031Z,99409.94
2022-10-06T00:14:37.774Z,99408.28
2022-10-06T00:17:04.667Z,99417.00
2022-10-06T00:19:31.483Z,99411.78
2022-10-06T00:21:58.289Z,99408.34
2022-10-06T00:24:25.094Z,99416.94
2022-10-06T00:26:54.308Z,99413.47
2022-10-06T00:29:20.821Z,99415.06
2022-10-06T00:31:47.409Z,99415.00
2022-10-06T00:34:14.061Z,99418.56
2022-10-06T00:36:40.622Z,99412.56
2022-10-06T00:39:07.267Z,99417.72
2022-10-06T00:41:33.837Z,99416.00
2022-10-06T00:44:00.468Z,99411.69
2022-10-06T00:46:47.009Z,99419.44
2022-10-06T00:49:16.439Z,99410.03
2022-10-06T00:51:47.990Z,99411.91
2022-10-06T00:54:16.538Z,99415.47
2022-10-06T00:56:43.554Z,99418.03
2022-10-06T00:59:13.299Z,99412.88
2022-10-06T01:01:43.789Z,99413.00
2022-10-06T01:04:12.600Z,99414.75
2022-10-06T01:06:51.437Z,99415.63
2022-10-06T01:09:19.694Z,99414.94
2022-10-06T01:11:50.201Z,99421.97
2022-10-06T01:14:19.218Z,99422.03
2022-10-06T01:16:49.997Z,99406.75
2022-10-06T01:19:43.276Z,99418.94
2022-10-06T01:22:13.364Z,99412.34
2022-10-06T01:24:40.282Z,99408.84
2022-10-06T01:27:09.234Z,99409.75
2022-10-06T01:29:37.065Z,99408.22
2022-10-06T01:32:04.161Z,99404.06
2022-10-06T01:34:30.756Z,99410.09
2022-10-06T01:36:57.309Z,99406.72
2022-10-06T01:39:23.892Z,99403.94
2022-10-06T01:41:50.606Z,99397.88
2022-10-06T01:44:17.156Z,99397.81
2022-10-06T01:46:43.725Z,99395.22
2022-10-06T01:49:10.349Z,99398.69
2022-10-06T01:51:36.914Z,99394.44
2022-10-06T01:54:03.546Z,99404.78
2022-10-06T01:56:30.092Z,99405.66
2022-10-06T01:58:56.662Z,99401.38
2022-10-06T02:01:23.832Z,99410.81
2022-10-06T02:03:50.464Z,99411.91
2022-10-06T02:06:17.065Z,99415.28
2022-10-06T02:08:43.699Z,99422.31
2022-10-06T02:11:12.130Z,99418.09
2022-10-06T02:13:38.989Z,99425.09
2022-10-06T02:16:08.106Z,99422.53
2022-10-06T02:18:35.582Z,99419.97
2022-10-06T02:21:03.454Z,99415.72
2022-10-06T02:23:31.038Z,99422.56
2022-10-06T02:26:01.946Z,99422.53
2022-10-06T02:28:29.039Z,99424.31
2022-10-06T02:31:01.318Z,99420.00
2022-10-06T02:33:27.965Z,99420.09
2022-10-06T02:35:56.059Z,99416.72
2022-10-06T02:38:24.055Z,99408.97
2022-10-06T02:40:51.339Z,99414.94
2022-10-06T02:43:17.956Z,99413.13
2022-10-06T02:45:44.448Z,99427.69
2022-10-06T02:48:11.814Z,99420.09
2022-10-06T02:50:39.042Z,99419.31
2022-10-06T02:53:08.650Z,99419.38
2022-10-06T02:55:35.941Z,99417.72
2022-10-06T02:58:03.640Z,99419.44
2022-10-06T03:00:30.202Z,99415.22
2022-10-06T03:02:56.824Z,99427.28
2022-10-06T03:05:23.435Z,99422.09
2022-10-06T03:07:50.084Z,99417.78
2022-10-06T03:10:16.737Z,99421.22
2022-10-06T03:12:43.341Z,99420.31
2022-10-06T03:15:10.078Z,99421.97
2022-10-06T03:17:36.826Z,99430.56
2022-10-06T03:20:04.333Z,99420.22
2022-10-06T03:22:30.875Z,99427.94
2022-10-06T03:24:57.490Z,99429.66
2022-10-06T03:27:24.073Z,99423.69
2022-10-06T03:29:51.605Z,99421.16
2022-10-06T03:32:18.189Z,99431.47
2022-10-06T03:34:46.823Z,99428.88
2022-10-06T03:37:13.524Z,99423.69
2022-10-06T03:39:40.207Z,99423.72
2022-10-06T03:42:06.802Z,99428.88
2022-10-06T03:44:35.183Z,99429.81
2022-10-06T03:47:01.852Z,99437.47
2022-10-06T03:49:28.529Z,99434.06
2022-10-06T03:51:55.107Z,99433.19
2022-10-06T03:54:21.682Z,99427.97
2022-10-06T03:56:48.284Z,99428.78
2022-10-06T03:59:19.605Z,99432.13
2022-10-06T04:01:48.394Z,99434.66
2022-10-06T04:04:15.611Z,99439.00
2022-10-06T04:06:44.252Z,99441.53
2022-10-06T04:09:15.342Z,99438.09
2022-10-06T04:11:44.051Z,99436.38
2022-10-06T04:14:13.810Z,99434.69
2022-10-06T04:16:43.564Z,99436.38
2022-10-06T04:19:12.008Z,99436.28
2022-10-06T04:21:40.247Z,99440.47
2022-10-06T04:24:07.976Z,99446.47
2022-10-06T04:26:37.185Z,99444.00
2022-10-06T04:29:04.476Z,99449.28
2022-10-06T04:31:37.196Z,99447.59
2022-10-06T04:34:05.565Z,99439.03
2022-10-06T04:36:35.492Z,99445.91
2022-10-06T04:39:04.076Z,99455.41
2022-10-06T04:41:33.451Z,99452.09
2022-10-06T04:44:00.964Z,99448.84
2022-10-06T04:46:42.704Z,99452.22
2022-10-06T04:49:14.641Z,99459.06
2022-10-06T04:51:45.289Z,99461.63
2022-10-06T04:54:11.935Z,99452.97
2022-10-06T04:56:38.518Z,99457.25
2022-10-06T04:59:05.028Z,99448.59
2022-10-06T05:01:34.114Z,99456.34
2022-10-06T05:04:02.468Z,99457.28
2022-10-06T05:06:32.096Z,99452.19
2022-10-06T05:09:00.869Z,99456.41
2022-10-06T05:11:28.420Z,99459.03
2022-10-06T05:13:56.844Z,99465.91
2022-10-06T05:16:26.193Z,99473.63
2022-10-06T05:18:53.217Z,99480.53
2022-10-06T05:21:24.883Z,99484.88
2022-10-06T05:23:51.880Z,99489.13
2022-10-06T05:26:21.100Z,99481.34
2022-10-06T05:28:48.065Z,99484.91
2022-10-06T05:31:20.423Z,99496.19
2022-10-06T05:33:47.405Z,99496.28
2022-10-06T05:36:19.624Z,99497.13
2022-10-06T05:38:46.292Z,99496.97
2022-10-06T05:41:15.565Z,99503.78
2022-10-06T05:43:42.793Z,99503.81
2022-10-06T05:46:17.600Z,99509.03
2022-10-06T05:48:51.488Z,99507.44
2022-10-06T05:51:19.723Z,99515.97
2022-10-06T05:53:47.644Z,99510.72
2022-10-06T05:56:17.439Z,99518.47
2022-10-06T05:58:45.940Z,99515.72
2022-10-06T06:01:22.869Z,99523.47
2022-10-06T06:03:54.369Z,99522.66
2022-10-06T06:06:44.180Z,99531.09
2022-10-06T06:09:21.383Z,99526.88
2022-10-06T06:11:50.300Z,99544.09
2022-10-06T06:14:19.590Z,99549.38
2022-10-06T06:16:46.555Z,99555.41
2022-10-06T06:19:14.391Z,99548.50
2022-10-06T06:21:41.526Z,99557.13
2022-10-06T06:24:08.229Z,99565.78
2022-10-06T06:26:37.094Z,99558.03
2022-10-06T06:29:05.286Z,99565.78
2022-10-06T06:31:37.502Z,99562.25
2022-10-06T06:34:06.721Z,99558.75
2022-10-06T06:36:36.966Z,99567.41
2022-10-06T06:39:07.034Z,99572.56
2022-10-06T06:41:37.965Z,99570.75
2022-10-06T06:44:05.568Z,99576.78
2022-10-06T06:46:32.522Z,99578.44
2022-10-06T06:49:04.344Z,99578.44
2022-10-06T06:51:33.298Z,99581.84
2022-10-06T06:54:02.353Z,99586.28
2022-10-06T06:56:35.256Z,99584.50
2022-10-06T06:59:03.650Z,99585.41
2022-10-06T07:01:30.520Z,99579.47
2022-10-06T07:03:59.302Z,99588.91
2022-10-06T07:06:28.936Z,99593.22
2022-10-06T07:08:57.779Z,99591.44
2022-10-06T07:11:25.867Z,99605.13
2022-10-06T07:13:54.904Z,99596.41
2022-10-06T07:16:41.993Z,99603.25
2022-10-06T07:19:29.772Z,99602.34
2022-10-06T07:22:16.046Z,99605.03
2022-10-06T07:25:02.108Z,99592.06
2022-10-06T07:27:29.141Z,99591.97
2022-10-06T07:29:56.641Z,99597.16
2022-10-06T07:32:28.031Z,99595.41
2022-10-06T07:34:54.990Z,99591.63
2022-10-06T07:37:21.936Z,99599.88
2022-10-06T07:39:49.627Z,99588.94
2022-10-06T07:42:18.078Z,99597.34
2022-10-06T07:45:06.185Z,99594.44
2022-10-06T07:47:33.889Z,99583.91
2022-10-06T07:50:00.791Z,99586.19
2022-10-06T07:52:30.146Z,99582.22
2022-10-06T07:54:58.425Z,99582.03
2022-10-06T07:57:34.647Z,99587.66
2022-10-06T08:00:04.439Z,99597.50
2022-10-06T08:02:34.732Z,99601.41
2022-10-06T08:05:02.666Z,99593.47
2022-10-06T08:07:29.386Z,99595.88
2022-10-06T08:09:55.935Z,99590.16
2022-10-06T08:12:34.755Z,99586.97
2022-10-06T08:15:06.884Z,99599.81
2022-10-06T08:17:36.506Z,99606.91
2022-10-06T08:20:05.430Z,99614.38
2022-10-06T08:22:32.212Z,99610.41
2022-10-06T08:25:06.338Z,99628.63
2022-10-06T08:27:36.452Z,99618.66
2022-10-06T08:30:06.015Z,99622.94
2022-10-06T08:32:33.898Z,99619.47
2022-10-06T08:35:00.513Z,99629.50
2022-10-06T08:37:27.499Z,99630.34
2022-10-06T08:39:54.969Z,99629.41
2022-10-06T08:42:41.548Z,99634.00
2022-10-06T08:45:28.553Z,99630.44
2022-10-06T08:47:59.912Z,99634.97
2022-10-06T08:50:33.006Z,99632.94
2022-10-06T08:53:14.126Z,99641.59
2022-10-06T08:55:50.123Z,99640.03
2022-10-06T08:58:16.599Z,99649.06
2022-10-06T09:00:43.443Z,99648.78
2022-10-06T09:03:23.683Z,99651.78
2022-10-06T09:05:58.784Z,99656.53
2022-10-06T09:08:56.076Z,99655.72
2022-10-06T09:12:00.043Z,99659.19
2022-10-06T09:14:42.762Z,99657.00
2022-10-06T09:17:14.047Z,99653.22
2022-10-06T09:19:46.290Z,99652.69
2022-10-06T09:22:19.951Z,99646.41
2022-10-06T09:24:50.564Z,99646.28
2022-10-06T09:27:19.796Z,99643.38
2022-10-06T09:29:48.846Z,99643.88
2022-10-06T09:32:20.188Z,99640.81
2022-10-06T09:34:55.853Z,99642.06
2022-10-06T09:37:23.637Z,99640.69
2022-10-06T09:39:51.368Z,99644.31
2022-10-06T09:42:20.709Z,99649.72
2022-10-06T09:44:51.083Z,99651.94
2022-10-06T09:47:39.319Z,99645.94
2022-10-06T09:50:29.179Z,99646.94
2022-10-06T09:53:00.444Z,99656.22
2022-10-06T09:55:29.195Z,99655.59
2022-10-06T09:57:57.341Z,99658.69
2022-10-06T10:00:42.897Z,99661.72
2022-10-06T10:03:14.089Z,99656.16
2022-10-06T10:05:48.308Z,99660.38
2022-10-06T10:08:19.795Z,99660.03
2022-10-06T10:10:46.385Z,99664.47
2022-10-06T10:13:25.439Z,99659.53
2022-10-06T10:16:01.082Z,99658.75
2022-10-06T10:18:30.769Z,99650.53
2022-10-06T10:21:05.362Z,99655.44
2022-10-06T10:23:43.304Z,99649.47
2022-10-06T10:26:36.140Z,99657.31
2022-10-06T10:29:02.660Z,99654.66
2022-10-06T10:32:11.762Z,99653.56
2022-10-06T10:34:59.117Z,99653.94
2022-10-06T10:37:39.917Z,99650.63
2022-10-06T10:40:25.899Z,99647.94
2022-10-06T10:43:31.016Z,99652.97
2022-10-06T10:46:04.341Z,99649.34
2022-10-06T10:48:39.856Z,99652.47
2022-10-06T10:51:21.554Z,99652.38
2022-10-06T10:53:57.602Z,99646.69
2022-10-06T10:56:26.608Z,99642.03
2022-10-06T10:59:02.082Z,99641.06
2022-10-06T11:01:53.017Z,99644.47
2022-10-06T11:04:20.468Z,99644.03
2022-10-06T11:06:54.819Z,99644.50
2022-10-06T11:09:35.708Z,99635.44
2022-10-06T11:12:36.046Z,99638.47
2022-10-06T11:15:33.093Z,99634.88
2022-10-06T11:18:19.459Z,99635.22
2022-10-06T11:20:53.020Z,99636.94
2022-10-06T11:23:58.312Z,99637.06
2022-10-06T11:26:43.780Z,99634.56
2022-10-06T11:29:44.818Z,99637.91
2022-10-06T11:32:39.612Z,99632.78
2022-10-06T11:35:29.687Z,99633.28
2022-10-06T11:38:03.769Z,99632.44
2022-10-06T11:40:55.194Z,99625.22
2022-10-06T11:43:49.471Z,99628.81
2022-10-06T11:46:31.788Z,99628.34
2022-10-06T11:49:52.014Z,99621.41
2022-10-06T11:52:18.740Z,99624.47
2022-10-06T11:54:48.461Z,99623.72
2022-10-06T11:57:30.315Z,99628.66
2022-10-06T12:00:16.115Z,99622.47
2022-10-06T12:02:43.768Z,99623.63
2022-10-06T12:05:36.354Z,99617.84
2022-10-06T12:07:56.922Z,99615.91
2022-10-06T12:10:29.544Z,99611.16
2022-10-06T12:14:01.587Z,99608.75
2022-10-06T12:19:32.377Z,99617.53
2022-10-06T12:22:18.339Z,99615.97
2022-10-06T12:25:00.125Z,99621.72
2022-10-06T12:28:05.528Z,99611.72
2022-10-06T12:30:54.123Z,99612.44
2022-10-06T12:33:39.198Z,99617.31
2022-10-06T12:36:17.731Z,99613.81
2022-10-06T12:39:00.447Z,99605.75
2022-10-06T12:41:59.318Z,99611.59
2022-10-06T12:44:36.427Z,99611.59
2022-10-06T12:47:10.366Z,99615.41
2022-10-06T12:49:51.483Z,99613.25
2022-10-06T12:53:01.153Z,99606.47
2022-10-06T12:55:49.147Z,99614.88
2022-10-06T12:58:20.956Z,99613.59
2022-10-06T13:00:48.338Z,99616.47
2022-10-06T13:03:25.793Z,99611.19
2022-10-06T13:05:56.150Z,99626.03
2022-10-06T13:08:25.912Z,99625.56
2022-10-06T13:11:19.852Z,99619.19
2022-10-06T13:13:52.882Z,99621.59
2022-10-06T13:16:32.954Z,99622.97
2022-10-06T13:19:01.225Z,99626.63
2022-10-06T13:21:30.408Z,99631.31
2022-10-06T13:23:57.387Z,99626.97
2022-10-06T13:26:34.731Z,99626.72
2022-10-06T13:29:01.388Z,99628.59
2022-10-06T13:31:33.642Z,99626.97
2022-10-06T13:34:11.250Z,99628.06
2022-10-06T13:36:40.483Z,99623.31
2022-10-06T13:39:13.720Z,99621.72
2022-10-06T13:41:53.730Z,99620.03
2022-10-06T13:44:26.309Z,99618.25
2022-10-06T13:46:58.591Z,99613.00
2022-10-06T13:49:31.462Z,99611.88
2022-10-06T13:52:02.315Z,99606.72
2022-10-06T13:54:40.472Z,99605.84
2022-10-06T13:57:42.174Z,99611.81
2022-10-06T14:00:14.667Z,99609.09
2022-10-06T14:02:42.931Z,99607.16
2022-10-06T14:05:22.958Z,99604.44
2022-10-06T14:07:50.588Z,99598.31
2022-10-06T14:12:54.194Z,99607.38
2022-10-06T14:15:27.330Z,99608.75
2022-10-06T14:17:58.030Z,99604.50
2022-10-06T14:20:38.491Z,99600.41
2022-10-06T14:23:42.637Z,99605.25
2022-10-06T14:26:11.742Z,99603.03
2022-10-06T14:28:39.850Z,99613.47
2022-10-06T14:31:10.730Z,99607.53
2022-10-06T14:33:40.138Z,99598.34
2022-10-06T14:36:06.816Z,99599.72
2022-10-06T14:38:33.345Z,99608.69
2022-10-06T14:41:03.030Z,99605.31
2022-10-06T14:43:29.616Z,99623.41
2022-10-06T14:45:56.794Z,99614.44
2022-10-06T14:48:23.397Z,99620.22
2022-10-06T14:50:49.976Z,99622.59
2022-10-06T14:53:17.459Z,99621.69
2022-10-06T14:55:44.847Z,99621.44
2022-10-06T14:58:12.477Z,99628.09
2022-10-06T15:00:42.213Z,99628.28
2022-10-06T15:03:09.212Z,99626.03
2022-10-06T15:05:55.779Z,99627.63
2022-10-06T15:08:22.294Z,99628.41
2022-10-06T15:10:52.950Z,99627.63
2022-10-06T15:13:19.915Z,99627.03
2022-10-06T15:15:47.468Z,99625.00
2022-10-06T15:18:15.201Z,99629.22
2022-10-06T15:20:41.791Z,99623.41
2022-10-06T15:23:09.721Z,99626.25
2022-10-06T15:25:54.854Z,99625.56
2022-10-06T15:28:41.816Z,99627.66
2022-10-06T15:31:08.590Z,99630.56
2022-10-06T15:33:36.660Z,99633.59
2022-10-06T15:36:30.846Z,99632.03
2022-10-06T15:38:58.321Z,99639.47
2022-10-06T15:41:24.922Z,99642.25
2022-10-06T15:43:56.506Z,99648.72
2022-10-06T15:46:27.847Z,99647.56
2022-10-06T15:49:05.677Z,99651.50
2022-10-06T15:51:49.978Z,99653.97
2022-10-06T15:54:21.914Z,99659.66
2022-10-06T15:56:50.723Z,99657.44
2022-10-06T15:59:24.175Z,99661.13
2022-10-06T16:01:53.179Z,99656.38
2022-10-06T16:04:27.698Z,99652.66
2022-10-06T16:06:57.713Z,99667.09
2022-10-06T16:09:30.406Z,99662.28
2022-10-06T16:11:58.525Z,99658.31
2022-10-06T16:14:26.162Z,99663.00
2022-10-06T16:16:54.055Z,99661.72
2022-10-06T16:19:20.556Z,99664.13
2022-10-06T16:21:49.285Z,99664.38
2022-10-06T16:24:17.620Z,99666.63
2022-10-06T16:26:48.413Z,99673.13
2022-10-06T16:29:15.958Z,99677.91
2022-10-06T16:31:42.918Z,99685.34
2022-10-06T16:34:10.450Z,99681.28
2022-10-06T16:36:37.260Z,99679.84
2022-10-06T16:39:05.877Z,99683.63
2022-10-06T16:41:32.844Z,99693.81
2022-10-06T16:43:59.994Z,99695.91
2022-10-06T16:46:29.026Z,99698.00
2022-10-06T16:48:57.825Z,99701.63
2022-10-06T16:51:30.265Z,99708.00
2022-10-06T16:53:58.096Z,99717.84
2022-10-06T16:56:31.713Z,99723.50
2022-10-06T16:59:00.299Z,99717.75
2022-10-06T17:01:29.441Z,99718.88
2022-10-06T17:04:07.438Z,99722.69
2022-10-06T17:06:35.573Z,99723.03
2022-10-06T17:09:02.168Z,99721.66
2022-10-06T17:11:28.736Z,99721.88
2022-10-06T17:13:57.984Z,99728.22
2022-10-06T17:16:27.661Z,99733.19
2022-10-06T17:18:55.961Z,99738.34
2022-10-06T17:21:44.273Z,99740.44
2022-10-06T17:24:09.964Z,99735.44
2022-10-06T17:26:41.294Z,99739.06
2022-10-06T17:29:12.941Z,99740.81
2022-10-06T17:31:43.643Z,99735.38
2022-10-06T17:34:20.490Z,99738.09
2022-10-06T17:36:50.729Z,99746.06
2022-10-06T17:39:22.186Z,99738.44
2022-10-06T17:41:51.492Z,99741.97
2022-10-06T17:44:26.072Z,99742.31
2022-10-06T17:46:55.170Z,99745.88
2022-10-06T17:49:23.960Z,99742.56
2022-10-06T17:51:53.036Z,99737.41
2022-10-06T17:54:21.911Z,99742.84
2022-10-06T17:56:51.171Z,99744.84
2022-10-06T17:59:23.342Z,99746.88
2022-10-06T18:01:51.795Z,99738.47
2022-10-06T18:04:18.972Z,99743.88
2022-10-06T18:06:47.473Z,99744.91
2022-10-06T18:09:14.770Z,99741.56
2022-10-06T18:11:44.022Z,99726.72
2022-10-06T18:14:16.370Z,99740.66
2022-10-06T18:16:46.345Z,99737.25
2022-10-06T18:19:20.390Z,99741.81
2022-10-06T18:21:47.981Z,99750.50
2022-10-06T18:24:21.076Z,99754.84
2022-10-06T18:26:49.678Z,99755.03
2022-10-06T18:29:19.800Z,99762.03
2022-10-06T18:31:52.148Z,99770.00
2022-10-06T18:37:06.007Z,99772.97
2022-10-06T18:39:33.627Z,99766.13
2022-10-06T18:42:04.077Z,99769.69
2022-10-06T18:44:49.446Z,99776.50
2022-10-06T18:47:34.887Z,99779.88
2022-10-06T18:50:01.658Z,99773.84
2022-10-06T18:52:28.575Z,99786.88
2022-10-06T18:54:55.107Z,99779.97
2022-10-06T18:57:27.313Z,99777.28
2022-10-06T18:59:54.451Z,99779.00
2022-10-06T19:02:21.107Z,99771.94
2022-10-06T19:04:48.494Z,99770.03
2022-10-06T19:07:15.198Z,99774.97
2022-10-06T19:09:46.509Z,99777.53
2022-10-06T19:12:15.955Z,99784.47
2022-10-06T19:14:47.467Z,99782.78
2022-10-06T19:17:15.181Z,99794.66
2022-10-06T19:19:51.218Z,99790.28
2022-10-06T19:22:21.663Z,99789.44
2022-10-06T19:24:48.615Z,99790.34
2022-10-06T19:27:24.148Z,99794.19
2022-10-06T19:29:56.722Z,99795.06
2022-10-06T19:32:26.449Z,99793.44
2022-10-06T19:34:53.866Z,99789.13
2022-10-06T19:37:20.533Z,99788.28
2022-10-06T19:39:50.321Z,99796.00
2022-10-06T19:42:37.739Z,99798.53
2022-10-06T19:45:06.041Z,99802.84
2022-10-06T19:47:33.312Z,99809.78
2022-10-06T19:50:03.690Z,99799.41
2022-10-06T19:52:31.765Z,99804.69
2022-10-06T19:54:58.975Z,99814.25
2022-10-06T19:57:28.344Z,99805.75
2022-10-06T19:59:55.101Z,99806.78
2022-10-06T20:02:21.636Z,99814.72
2022-10-06T20:04:48.255Z,99813.03
2022-10-06T20:07:14.803Z,99815.78
2022-10-06T20:09:41.394Z,99820.81
2022-10-06T20:12:07.973Z,99819.94
2022-10-06T20:14:34.579Z,99822.53
2022-10-06T20:17:02.782Z,99816.66
2022-10-06T20:19:29.567Z,99820.28
2022-10-06T20:21:56.314Z,99822.84
2022-10-06T20:24:24.713Z,99820.38
2022-10-06T20:26:53.538Z,99811.97
2022-10-06T20:29:23.256Z,99824.84
2022-10-06T20:31:52.256Z,99826.47
2022-10-06T20:34:21.612Z,99827.50
2022-10-06T20:36:51.917Z,99826.88
2022-10-06T20:39:41.068Z,99826.19
2022-10-06T20:42:15.335Z,99821.28
2022-10-06T20:44:42.977Z,99825.59
2022-10-06T20:47:10.708Z,99820.72
2022-10-06T20:49:37.559Z,99821.72
2022-10-06T20:52:05.508Z,99823.56
2022-10-06T20:54:35.071Z,99816.66
2022-10-06T20:57:04.406Z,99823.66
2022-10-06T20:59:31.825Z,99816.03
2022-10-06T21:02:01.154Z,99822.09
2022-10-06T21:04:27.951Z,99827.31
2022-10-06T21:06:54.600Z,99829.94
2022-10-06T21:09:21.241Z,99829.25
2022-10-06T21:11:48.397Z,99832.84
2022-10-06T21:14:15.909Z,99827.84
2022-10-06T21:16:45.823Z,99833.16
2022-10-06T21:19:18.207Z,99830.66
2022-10-06T21:21:51.639Z,99829.06
2022-10-06T21:24:18.955Z,99828.25
2022-10-06T21:26:45.538Z,99824.84
2022-10-06T21:29:15.615Z,99821.47
2022-10-06T21:31:43.232Z,99819.81
2022-10-06T21:34:10.603Z,99816.53
2022-10-06T21:36:38.092Z,99823.75
2022-10-06T21:39:05.868Z,99822.78
2022-10-06T21:41:40.281Z,99820.16
2022-10-06T21:44:10.899Z,99822.03
2022-10-06T21:46:49.047Z,99828.94
2022-10-06T21:49:20.918Z,99822.78
2022-10-06T21:51:50.528Z,99820.31
2022-10-06T21:54:17.543Z,99819.47
2022-10-06T21:56:44.463Z,99823.81
2022-10-06T21:59:11.353Z,99824.72
2022-10-06T22:01:40.654Z,99821.47
2022-10-06T22:04:07.827Z,99827.75
2022-10-06T22:06:36.091Z,99827.13
2022-10-06T22:09:04.014Z,99825.47
2022-10-06T22:11:33.595Z,99827.34
2022-10-06T22:14:02.527Z,99812.75
2022-10-06T22:16:31.595Z,99807.56
2022-10-06T22:18:59.269Z,99807.63
2022-10-06T22:21:34.300Z,99801.66
2022-10-06T22:24:06.691Z,99805.03
2022-10-06T22:26:35.076Z,99792.28
2022-10-06T22:29:01.685Z,99806.06
2022-10-06T22:31:28.638Z,99800.94
2022-10-06T22:33:58.103Z,99800.84
2022-10-06T22:36:26.037Z,99797.34
2022-10-06T22:38:53.171Z,99797.25
2022-10-06T22:41:20.134Z,99794.72
2022-10-06T22:43:46.704Z,99795.75
2022-10-06T22:46:14.269Z,99795.75
2022-10-06T22:48:41.787Z,99799.28
2022-10-06T22:51:09.585Z,99798.47
2022-10-06T22:53:36.225Z,99795.75
2022-10-06T22:56:04.130Z,99796.63
2022-10-06T22:58:31.320Z,99788.81
2022-10-06T23:00:58.095Z,99792.38
2022-10-06T23:03:24.912Z,99788.09
2022-10-06T23:06:00.317Z,99795.91
2022-10-06T23:08:31.403Z,99798.53
2022-10-06T23:11:14.011Z,99795.13
2022-10-06T23:13:41.376Z,99796.84
2022-10-06T23:16:10.234Z,99792.66
2022-10-06T23:18:39.374Z,99791.81
2022-10-06T23:21:07.810Z,99791.84
2022-10-06T23:23:34.678Z,99794.44
2022-10-06T23:26:10.985Z,99797.84
2022-10-06T23:28:37.996Z,99790.09
2022-10-06T23:31:07.165Z,99790.22
2022-10-06T23:33:34.426Z,99782.47
2022-10-06T23:36:03.254Z,99791.13
2022-10-06T23:38:30.011Z,99786.00
2022-10-06T23:40:56.895Z,99786.97
2022-10-06T23:43:23.948Z,99788.75
2022-10-06T23:45:50.897Z,99785.31
2022-10-06T23:48:17.981Z,99777.63
2022-10-06T23:51:01.667Z,99774.16
2022-10-06T23:53:29.902Z,99780.22
2022-10-06T23:55:56.859Z,99772.59
2022-10-06T23:58:24.194Z,99778.69
